createdAt,value
2024-01-21T09:58:46.368Z,82.68
2024-01-21T10:01:13.566Z,81.72
2024-01-21T10:03:40.624Z,79.72
2024-01-21T10:06:07.793Z,80.04
2024-01-21T10:08:38.258Z,76.86
2024-01-21T10:11:05.308Z,76.99
2024-01-21T10:13:32.761Z,73.30
2024-01-21T10:15:59.638Z,77.86
2024-01-21T10:18:28.151Z,71.98
2024-01-21T10:20:59.031Z,74.21
2024-01-21T10:23:27.243Z,72.26
2024-01-21T10:25:53.854Z,70.27
2024-01-21T10:28:21.683Z,71.08
2024-01-21T10:30:48.824Z,69.44
2024-01-21T10:33:16.082Z,71.22
2024-01-21T10:35:43.390Z,71.86
2024-01-21T10:38:14.603Z,71.10
2024-01-21T10:40:45.254Z,69.00
2024-01-21T10:43:16.093Z,65.83
2024-01-21T10:45:46.954Z,66.28
2024-01-21T10:48:15.043Z,66.77
2024-01-21T10:50:43.364Z,69.44
2024-01-21T10:53:14.055Z,68.94
2024-01-21T10:55:41.789Z,68.70
2024-01-21T10:58:09.875Z,69.91
2024-01-21T11:00:38.248Z,69.42
2024-01-21T11:03:28.624Z,68.90
2024-01-21T11:06:04.288Z,70.93
2024-01-21T11:08:31.279Z,69.82
2024-01-21T11:11:01.827Z,71.65
2024-01-21T11:13:45.131Z,69.96
2024-01-21T11:16:12.882Z,70.18
2024-01-21T11:18:39.693Z,71.35
2024-01-21T11:21:06.509Z,71.26
2024-01-21T11:23:34.653Z,71.91
2024-01-21T11:26:01.528Z,70.74
2024-01-21T11:28:29.706Z,69.66
2024-01-21T11:31:03.983Z,70.03
2024-01-21T11:33:31.512Z,71.79
2024-01-21T11:35:59.937Z,71.33
2024-01-21T11:38:30.509Z,71.43
2024-01-21T11:41:08.430Z,71.41
2024-01-21T11:43:35.085Z,70.63
2024-01-21T11:46:04.033Z,71.05
2024-01-21T11:48:31.789Z,70.68
2024-01-21T11:50:58.844Z,71.15
2024-01-21T11:53:25.535Z,71.87
2024-01-21T11:55:52.890Z,70.69
2024-01-21T11:58:20.122Z,70.67
2024-01-21T12:00:48.333Z,71.95
2024-01-21T12:03:15.477Z,71.10
2024-01-21T12:05:42.781Z,71.36
2024-01-21T12:08:10.347Z,71.34
2024-01-21T12:10:37.073Z,72.20
2024-01-21T12:13:06.400Z,72.48
2024-01-21T12:15:37.377Z,71.82
2024-01-21T12:18:04.734Z,72.59
2024-01-21T12:20:31.471Z,72.20
2024-01-21T12:22:58.379Z,71.69
2024-01-21T12:25:25.653Z,70.59
2024-01-21T12:28:12.710Z,67.05
2024-01-21T12:30:39.476Z,66.69
2024-01-21T12:33:06.250Z,66.77
2024-01-21T12:35:33.331Z,66.92
2024-01-21T12:38:02.715Z,68.28
2024-01-21T12:40:29.634Z,68.58
2024-01-21T12:42:56.277Z,68.87
2024-01-21T12:45:23.415Z,69.63
2024-01-21T12:47:50.256Z,69.30
2024-01-21T12:50:17.177Z,69.71
2024-01-21T12:52:43.859Z,69.01
2024-01-21T12:55:11.694Z,67.51
2024-01-21T12:57:38.654Z,67.22
2024-01-21T13:00:06.090Z,67.19
2024-01-21T13:02:32.725Z,67.72
2024-01-21T13:04:59.373Z,67.70
2024-01-21T13:07:26.126Z,69.93
2024-01-21T13:09:52.920Z,69.00
2024-01-21T13:12:19.890Z,68.35
2024-01-21T13:14:46.698Z,69.03
2024-01-21T13:17:13.427Z,68.20
2024-01-21T13:19:40.253Z,68.26
2024-01-21T13:22:08.233Z,68.26
2024-01-21T13:24:36.199Z,69.88
2024-01-21T13:27:11.002Z,69.50
2024-01-21T13:29:56.212Z,68.03
2024-01-21T13:32:24.489Z,69.98
2024-01-21T13:34:51.627Z,70.14
2024-01-21T13:37:19.922Z,70.48
2024-01-21T13:39:47.856Z,69.58
2024-01-21T13:42:14.569Z,69.20
2024-01-21T13:44:41.173Z,68.96
2024-01-21T13:47:07.861Z,70.11
2024-01-21T13:49:36.727Z,71.73
2024-01-21T13:52:03.799Z,71.37
2024-01-21T13:54:30.765Z,71.69
2024-01-21T13:56:57.497Z,72.55
2024-01-21T13:59:24.076Z,71.79
2024-01-21T14:01:57.831Z,72.33
2024-01-21T14:04:32.468Z,72.13
2024-01-21T14:06:59.437Z,73.10
2024-01-21T14:09:26.214Z,74.26
2024-01-21T14:11:52.842Z,74.53
2024-01-21T14:14:19.648Z,74.57
2024-01-21T14:16:46.259Z,74.38
2024-01-21T14:19:13.205Z,74.63
2024-01-21T14:21:40.152Z,75.43
2024-01-21T14:24:07.255Z,75.24
2024-01-21T14:26:36.708Z,76.43
2024-01-21T14:29:13.893Z,77.08
2024-01-21T14:31:41.773Z,77.69
2024-01-21T14:34:12.916Z,79.34
2024-01-21T14:36:41.131Z,79.33
2024-01-21T14:39:07.800Z,79.52
2024-01-21T14:41:34.502Z,78.92
2024-01-21T14:44:01.821Z,78.54
2024-01-21T14:46:28.520Z,78.13
2024-01-21T14:48:55.346Z,77.92
2024-01-21T14:51:22.155Z,77.65
2024-01-21T14:53:48.767Z,77.47
2024-01-21T14:56:15.508Z,78.26
2024-01-21T14:58:43.117Z,77.78
2024-01-21T15:01:09.880Z,77.83
2024-01-21T15:03:36.710Z,78.33
2024-01-21T15:06:03.612Z,78.58
2024-01-21T15:08:30.234Z,79.25
2024-01-21T15:10:59.805Z,78.64
2024-01-21T15:13:28.391Z,79.01
2024-01-21T15:15:55.344Z,78.79
2024-01-21T15:18:30.333Z,79.08
2024-01-21T15:21:01.117Z,79.62
2024-01-21T15:23:27.727Z,79.18
2024-01-21T15:25:55.777Z,78.10
2024-01-21T15:28:22.497Z,78.66
2024-01-21T15:30:49.623Z,78.36
2024-01-21T15:33:16.494Z,78.10
2024-01-21T15:35:43.262Z,78.91
2024-01-21T15:38:11.388Z,79.49
2024-01-21T15:40:38.151Z,79.57
2024-01-21T15:43:05.711Z,80.85
2024-01-21T15:45:32.436Z,80.77
2024-01-21T15:47:59.223Z,82.22
2024-01-21T15:50:26.065Z,82.81
2024-01-21T15:52:52.876Z,83.57
2024-01-21T15:55:20.815Z,84.17
2024-01-21T15:57:47.740Z,85.30
2024-01-21T16:00:14.775Z,85.76
2024-01-21T16:02:41.490Z,86.92
2024-01-21T16:05:08.499Z,85.98
2024-01-21T16:07:35.093Z,86.17
2024-01-21T16:10:01.943Z,86.31
2024-01-21T16:12:29.779Z,87.30
2024-01-21T16:14:56.813Z,87.81
2024-01-21T16:17:23.479Z,88.49
2024-01-21T16:19:50.883Z,88.89
2024-01-21T16:22:18.835Z,88.56
2024-01-21T16:24:47.385Z,87.97
2024-01-21T16:27:19.869Z,88.59
2024-01-21T16:29:53.450Z,89.20
2024-01-21T16:32:20.323Z,89.89
2024-01-21T16:34:55.691Z,90.72
2024-01-21T16:37:27.361Z,91.91
2024-01-21T16:39:55.648Z,93.04
2024-01-21T16:42:22.810Z,93.45
2024-01-21T16:44:51.408Z,91.65
2024-01-21T16:47:18.389Z,91.23
2024-01-21T16:49:45.123Z,92.41
2024-01-21T16:52:16.764Z,92.92
2024-01-21T16:54:44.291Z,92.56
2024-01-21T16:57:11.046Z,92.41
2024-01-21T16:59:39.504Z,93.03
2024-01-21T17:02:18.847Z,91.51
2024-01-21T17:04:46.684Z,92.90
2024-01-21T17:07:13.634Z,93.60
2024-01-21T17:09:44.997Z,93.77
2024-01-21T17:12:37.457Z,94.96
2024-01-21T17:15:05.241Z,95.49
2024-01-21T17:17:32.099Z,95.37
2024-01-21T17:19:59.317Z,95.05
2024-01-21T17:22:26.678Z,95.14
2024-01-21T17:24:53.362Z,95.86
2024-01-21T17:27:20.782Z,95.62
2024-01-21T17:29:47.488Z,96.33
2024-01-21T17:32:14.342Z,96.65
2024-01-21T17:34:41.324Z,97.12
2024-01-21T17:37:08.104Z,97.21
2024-01-21T17:39:34.840Z,97.30
2024-01-21T17:42:08.771Z,97.17
2024-01-21T17:44:36.092Z,97.50
2024-01-21T17:47:02.775Z,98.55
2024-01-21T17:49:30.368Z,99.25
2024-01-21T17:51:57.028Z,100.00
2024-01-21T17:54:23.706Z,100.00
2024-01-21T17:56:50.366Z,100.00
2024-01-21T17:59:17.240Z,100.00
2024-01-21T18:01:45.106Z,99.27
2024-01-21T18:04:12.120Z,99.55
2024-01-21T18:06:39.718Z,100.00
2024-01-21T18:09:07.501Z,99.35
2024-01-21T18:11:35.255Z,98.79
2024-01-21T18:14:02.353Z,97.85
2024-01-21T18:16:28.958Z,98.60
2024-01-21T18:18:55.796Z,99.09
2024-01-21T18:21:24.101Z,99.54
2024-01-21T18:23:50.974Z,99.97
2024-01-21T18:26:17.923Z,100.00
2024-01-21T18:28:46.339Z,100.00
2024-01-21T18:31:13.876Z,100.00
2024-01-21T18:33:40.884Z,100.00
2024-01-21T18:36:08.321Z,100.00
2024-01-21T18:38:35.093Z,100.00
2024-01-21T18:41:01.733Z,100.00
2024-01-21T18:43:28.852Z,100.00
2024-01-21T18:45:55.711Z,100.00
2024-01-21T18:48:22.500Z,100.00
2024-01-21T18:50:49.282Z,100.00
2024-01-21T18:53:15.905Z,100.00
2024-01-21T18:55:43.837Z,100.00
2024-01-21T18:58:15.267Z,100.00
2024-01-21T19:00:47.812Z,100.00
2024-01-21T19:03:14.557Z,100.00
2024-01-21T19:05:41.367Z,100.00
2024-01-21T19:08:08.640Z,100.00
2024-01-21T19:10:35.366Z,100.00
2024-01-21T19:13:02.192Z,100.00
2024-01-21T19:15:30.937Z,100.00
2024-01-21T19:17:57.641Z,100.00
2024-01-21T19:20:24.491Z,100.00
2024-01-21T19:22:51.299Z,100.00
2024-01-21T19:25:18.073Z,100.00
2024-01-21T19:27:44.780Z,100.00
2024-01-21T19:30:12.262Z,100.00
2024-01-21T19:32:39.035Z,100.00
2024-01-21T19:35:06.426Z,100.00
2024-01-21T19:37:33.075Z,100.00
2024-01-21T19:39:59.735Z,100.00
2024-01-21T19:42:26.447Z,100.00
2024-01-21T19:44:53.164Z,100.00
2024-01-21T19:47:19.762Z,100.00
2024-01-21T19:49:46.429Z,100.00
2024-01-21T19:52:13.063Z,100.00
2024-01-21T19:54:39.794Z,100.00
2024-01-21T19:57:06.467Z,100.00
2024-01-21T19:59:33.293Z,100.00
2024-01-21T20:01:59.993Z,100.00
2024-01-21T20:04:26.832Z,100.00
2024-01-21T20:06:53.786Z,100.00
2024-01-21T20:09:23.448Z,100.00
2024-01-21T20:11:50.109Z,100.00
2024-01-21T20:14:16.873Z,100.00
2024-01-21T20:16:43.530Z,100.00
2024-01-21T20:19:10.233Z,100.00
2024-01-21T20:21:38.707Z,100.00
2024-01-21T20:24:07.154Z,100.00
2024-01-21T20:26:33.813Z,100.00
2024-01-21T20:29:00.480Z,100.00
2024-01-21T20:31:27.038Z,100.00
2024-01-21T20:33:56.171Z,100.00
2024-01-21T20:36:22.988Z,100.00
2024-01-21T20:38:50.007Z,100.00
2024-01-21T20:41:17.870Z,100.00
2024-01-21T20:43:47.480Z,100.00
2024-01-21T20:46:16.862Z,100.00
2024-01-21T20:48:44.723Z,100.00
2024-01-21T20:51:11.893Z,100.00
2024-01-21T20:53:38.822Z,100.00
2024-01-21T20:56:08.103Z,100.00
2024-01-21T20:58:35.803Z,100.00
2024-01-21T21:01:09.976Z,100.00
2024-01-21T21:03:40.964Z,100.00
2024-01-21T21:06:07.766Z,100.00
2024-01-21T21:08:34.692Z,100.00
2024-01-21T21:11:02.803Z,100.00
2024-01-21T21:13:30.209Z,100.00
2024-01-21T21:15:57.137Z,100.00
2024-01-21T21:18:24.520Z,100.00
2024-01-21T21:20:51.330Z,100.00
2024-01-21T21:23:18.001Z,100.00
2024-01-21T21:25:44.654Z,100.00
2024-01-21T21:28:12.071Z,100.00
2024-01-21T21:30:38.711Z,100.00
2024-01-21T21:33:05.693Z,100.00
2024-01-21T21:35:34.000Z,100.00
2024-01-21T21:38:00.762Z,100.00
2024-01-21T21:40:27.555Z,100.00
2024-01-21T21:42:54.182Z,100.00
2024-01-21T21:45:23.115Z,100.00
2024-01-21T21:47:51.510Z,100.00
2024-01-21T21:50:18.356Z,100.00
2024-01-21T21:52:45.230Z,100.00
2024-01-21T21:55:11.873Z,100.00
2024-01-21T21:57:38.948Z,100.00
2024-01-21T22:00:07.939Z,100.00
2024-01-21T22:02:35.251Z,100.00
2024-01-21T22:05:02.263Z,100.00
2024-01-21T22:07:29.376Z,100.00
2024-01-21T22:09:56.556Z,100.00
2024-01-21T22:12:23.563Z,100.00
2024-01-21T22:14:50.304Z,100.00
2024-01-21T22:17:17.673Z,100.00
2024-01-21T22:19:44.719Z,100.00
2024-01-21T22:22:11.562Z,100.00
2024-01-21T22:24:41.676Z,100.00
2024-01-21T22:27:08.461Z,100.00
2024-01-21T22:29:35.287Z,100.00
2024-01-21T22:32:02.833Z,100.00
2024-01-21T22:34:29.493Z,100.00
2024-01-21T22:36:56.149Z,100.00
2024-01-21T22:39:22.767Z,100.00
2024-01-21T22:41:49.522Z,100.00
2024-01-21T22:44:16.113Z,100.00
2024-01-21T22:46:43.300Z,100.00
2024-01-21T22:49:10.182Z,100.00
2024-01-21T22:51:37.351Z,100.00
2024-01-21T22:54:04.587Z,100.00
2024-01-21T22:56:31.349Z,100.00
2024-01-21T22:58:57.979Z,100.00
2024-01-21T23:01:24.681Z,100.00
2024-01-21T23:03:51.396Z,100.00
2024-01-21T23:06:18.671Z,100.00
2024-01-21T23:08:45.334Z,100.00
2024-01-21T23:11:12.721Z,100.00
2024-01-21T23:13:40.321Z,100.00
2024-01-21T23:16:07.641Z,100.00
2024-01-21T23:18:34.378Z,100.00
2024-01-21T23:21:01.247Z,100.00
2024-01-21T23:23:27.907Z,100.00
2024-01-21T23:25:54.590Z,100.00
2024-01-21T23:28:21.272Z,100.00
2024-01-21T23:30:48.141Z,100.00
2024-01-21T23:33:15.173Z,100.00
2024-01-21T23:35:42.988Z,100.00
2024-01-21T23:38:09.685Z,100.00
2024-01-21T23:40:36.321Z,100.00
2024-01-21T23:43:03.011Z,100.00
2024-01-21T23:45:29.914Z,100.00
2024-01-21T23:47:56.568Z,100.00
2024-01-21T23:50:23.359Z,100.00
2024-01-21T23:52:50.231Z,100.00
2024-01-21T23:55:18.467Z,100.00
2024-01-21T23:57:45.171Z,100.00
